Swiss, WV (26690)

7:16 PM EDT on September 20, 2014 (GMT -0400)
. | Change Station
CLOSE
Current Station
Personal Weather Station
Location: Gauley Bridge, WV
Elevation: 804 ft
Nearby Weather Stations

Elev 804 ft 38.17 °N, 81.19 °W | Updated 2 minutes ago

Partly Cloudy
Partly Cloudy
73.9 °F
Feels Like 76 °F
N
0.0
Wind Variable Wind from West
Gusts 0.0 mph

Today
High -- | Low -- °F
--% Chance of Precip.
Yesterday
High -- | Low -- °F
Precip. -- in
7:10 AM 7:24 PM
Waning Crescent, 10% visible
Pressure 29.98 in
Visibility 10.0 miles
Clouds Few 5000 ft
Scattered Clouds 25000 ft
Heat Index 76 °F
Dew Point 62 °F
Humidity 67%
Rainfall 0.00 in
Snow Depth Not available.
UV 0 out of 12
Pollen 3.80 out of 12
Air Quality Not available.
Flu Activity Not available.
METAR KCRW 202254Z 00000KT 10SM FEW050 SCT250 25/18 A3000 RMK AO2 SLP151 T02500183

More Conditions Fewer Conditions

Pressure 29.98 in
Visibility 10.0 miles
Clouds Few 5000 ft
Scattered Clouds 25000 ft
Heat Index 76 °F
Dew Point 62 °F
Humidity 67%
Rainfall 0.00 in
Snow Depth Not available.
UV 0 out of 12
Pollen 3.80 out of 12
Air Quality Not available.
Flu Activity Not available.
METAR KCRW 202254Z 00000KT 10SM FEW050 SCT250 25/18 A3000 RMK AO2 SLP151 T02500183

More Conditions Fewer Conditions

10-Day Weather Forecast

Almanac

Astronomy

Sep. 20, 2014 Rise Set
Actual Time 7:10 AM EDT 7:24 PM EDT
Civil Twilight 6:43 AM EDT 7:50 PM EDT
Nautical Twilight 6:12 AM EDT 8:21 PM EDT
Astronomical Twilight 5:41 AM EDT 8:53 PM EDT
Moon 3:50 AM EDT 5:25 PM EDT
Length of Visible Light 13h 06m
Length of Day
12h 14m
Tomorrow will be 2m 28s shorter.
Waning Crescent, 10% of the Moon is Illuminated
Today
Waning Crescent
Sep 24
New
Oct 1
First Quarter
Oct 8
Full
Oct 15
Last Quarter

Today's Extremes

State Highs State Lows

Community

WunderPhotos

Upload Photos

1,754,972 photos uploaded!

WunderBlogs® & News

Nearby

Snow Depth

Station Depth Elevation
No new snow has been reported.

Earthquake Activity

City Distance Mag. Time & Date
No recent earthquake activity has been reported nearby.
Minimum magnitude displayed is 2.5.

Coastal Water Temperatures

Place Temperature
No Stations Reporting

Nearby Weather Stations